logo
Search for airport 
image banner adimage banner adimage banner ad
image banner ad

YTBRA - The Brae

Located in Cracow, Australia

ICAO - , IATA -

Data provided by Airmate  

General information

Coordinates: S25°17'55" E150°15'43"
Elevation is 930 feet MSL.
Magnetic variation is 10° East
View others Airports in Queensland

Operational data

Special qualification required
Current time UTC:
Current local time:
Weather at : - ( 0 km )
METAR: ROTM 171256Z 19006KT 9999 FEW025 28/27 A2988 RMK SLP118 T02830272
View NOTAMs / SUP AIP / TFR affecting this airport [VIEW]
Communications frequencies: [VIEW]

Runways:

RWY identifierQFULength (ft)Width (ft)SurfaceLDA (ft)
14145°455539DIRT
32325°455539DIRT

Airport contact information

Address: Cracow Australia

Satellite view of YTBRA